sensor_id;sensor_type;location;lat;lon;timestamp;P1;durP1;ratioP1;P2;durP2;ratioP2
13795;SDS011;40911;51.552;9.874;2022-07-09T00:03:56;3.60;;;2.50;;
13795;SDS011;40911;51.552;9.874;2022-07-09T00:06:18;6.35;;;2.95;;
13795;SDS011;40911;51.552;9.874;2022-07-09T00:08:39;5.15;;;2.70;;
13795;SDS011;40911;51.552;9.874;2022-07-09T00:11:01;7.25;;;3.00;;
13795;SDS011;40911;51.552;9.874;2022-07-09T00:15:44;7.80;;;2.83;;
13795;SDS011;40911;51.552;9.874;2022-07-09T00:20:28;6.30;;;3.40;;
13795;SDS011;40911;51.552;9.874;2022-07-09T00:22:50;4.03;;;2.97;;
13795;SDS011;40911;51.552;9.874;2022-07-09T00:27:33;5.30;;;3.20;;
13795;SDS011;40911;51.552;9.874;2022-07-09T00:29:55;6.53;;;3.13;;
13795;SDS011;40911;51.552;9.874;2022-07-09T00:32:16;6.55;;;3.25;;
13795;SDS011;40911;51.552;9.874;2022-07-09T00:34:38;6.05;;;3.65;;
13795;SDS011;40911;51.552;9.874;2022-07-09T00:37:01;5.18;;;3.65;;
13795;SDS011;40911;51.552;9.874;2022-07-09T00:39:23;7.50;;;3.60;;
13795;SDS011;40911;51.552;9.874;2022-07-09T00:41:44;7.60;;;3.70;;
13795;SDS011;40911;51.552;9.874;2022-07-09T00:44:06;7.90;;;3.60;;
13795;SDS011;40911;51.552;9.874;2022-07-09T00:48:49;7.05;;;3.65;;
13795;SDS011;40911;51.552;9.874;2022-07-09T00:51:11;10.18;;;4.03;;
13795;SDS011;40911;51.552;9.874;2022-07-09T00:53:35;6.60;;;3.85;;
13795;SDS011;40911;51.552;9.874;2022-07-09T00:55:57;7.00;;;3.70;;
13795;SDS011;40911;51.552;9.874;2022-07-09T00:58:20;7.03;;;3.70;;
13795;SDS011;40911;51.552;9.874;2022-07-09T01:00:43;6.53;;;4.05;;
13795;SDS011;40911;51.552;9.874;2022-07-09T01:03:05;6.82;;;3.85;;
13795;SDS011;40911;51.552;9.874;2022-07-09T01:07:55;7.65;;;3.88;;
13795;SDS011;40911;51.552;9.874;2022-07-09T01:10:18;6.03;;;3.75;;
13795;SDS011;40911;51.552;9.874;2022-07-09T01:12:40;6.05;;;3.67;;
13795;SDS011;40911;51.552;9.874;2022-07-09T01:15:01;7.28;;;4.03;;
13795;SDS011;40911;51.552;9.874;2022-07-09T01:17:23;6.00;;;3.72;;
13795;SDS011;40911;51.552;9.874;2022-07-09T01:22:08;4.78;;;3.58;;
13795;SDS011;40911;51.552;9.874;2022-07-09T01:24:29;4.75;;;3.70;;
13795;SDS011;40911;51.552;9.874;2022-07-09T01:26:51;4.78;;;3.70;;
13795;SDS011;40911;51.552;9.874;2022-07-09T01:29:14;7.72;;;3.80;;
13795;SDS011;40911;51.552;9.874;2022-07-09T01:31:36;5.70;;;3.90;;
13795;SDS011;40911;51.552;9.874;2022-07-09T01:36:19;8.10;;;4.03;;
13795;SDS011;40911;51.552;9.874;2022-07-09T01:41:04;5.70;;;3.65;;
13795;SDS011;40911;51.552;9.874;2022-07-09T01:45:47;7.75;;;3.97;;
13795;SDS011;40911;51.552;9.874;2022-07-09T01:50:30;7.78;;;4.15;;
13795;SDS011;40911;51.552;9.874;2022-07-09T01:55:14;6.25;;;3.85;;
13795;SDS011;40911;51.552;9.874;2022-07-09T01:57:36;10.23;;;4.30;;
13795;SDS011;40911;51.552;9.874;2022-07-09T02:02:19;6.50;;;4.03;;
13795;SDS011;40911;51.552;9.874;2022-07-09T02:07:02;7.55;;;3.92;;
13795;SDS011;40911;51.552;9.874;2022-07-09T02:09:24;5.82;;;3.63;;
13795;SDS011;40911;51.552;9.874;2022-07-09T02:11:47;5.63;;;3.55;;
13795;SDS011;40911;51.552;9.874;2022-07-09T02:14:09;5.07;;;4.03;;
13795;SDS011;40911;51.552;9.874;2022-07-09T02:16:31;6.07;;;4.10;;
13795;SDS011;40911;51.552;9.874;2022-07-09T02:21:14;7.88;;;4.20;;
13795;SDS011;40911;51.552;9.874;2022-07-09T02:25:57;6.00;;;3.80;;
13795;SDS011;40911;51.552;9.874;2022-07-09T02:30:41;4.65;;;3.55;;
13795;SDS011;40911;51.552;9.874;2022-07-09T02:33:03;8.63;;;4.07;;
13795;SDS011;40911;51.552;9.874;2022-07-09T02:35:25;8.07;;;4.07;;
13795;SDS011;40911;51.552;9.874;2022-07-09T02:37:46;6.22;;;3.92;;
13795;SDS011;40911;51.552;9.874;2022-07-09T02:40:08;4.63;;;3.83;;
13795;SDS011;40911;51.552;9.874;2022-07-09T02:42:30;6.05;;;4.25;;
13795;SDS011;40911;51.552;9.874;2022-07-09T02:44:53;4.13;;;3.80;;
13795;SDS011;40911;51.552;9.874;2022-07-09T02:47:15;6.57;;;4.22;;
13795;SDS011;40911;51.552;9.874;2022-07-09T02:49:36;7.00;;;3.92;;
13795;SDS011;40911;51.552;9.874;2022-07-09T02:51:58;6.38;;;3.92;;
13795;SDS011;40911;51.552;9.874;2022-07-09T02:54:21;4.80;;;4.10;;
13795;SDS011;40911;51.552;9.874;2022-07-09T02:56:43;5.88;;;4.68;;
13795;SDS011;40911;51.552;9.874;2022-07-09T02:59:04;6.82;;;4.78;;
13795;SDS011;40911;51.552;9.874;2022-07-09T03:03:49;7.07;;;4.25;;
13795;SDS011;40911;51.552;9.874;2022-07-09T03:08:32;8.88;;;4.80;;
13795;SDS011;40911;51.552;9.874;2022-07-09T03:10:54;9.10;;;4.72;;
13795;SDS011;40911;51.552;9.874;2022-07-09T03:15:37;12.45;;;4.35;;
13795;SDS011;40911;51.552;9.874;2022-07-09T03:18:00;8.68;;;4.30;;
13795;SDS011;40911;51.552;9.874;2022-07-09T03:20:22;10.02;;;4.45;;
13795;SDS011;40911;51.552;9.874;2022-07-09T03:22:43;7.95;;;4.20;;
13795;SDS011;40911;51.552;9.874;2022-07-09T03:25:05;7.88;;;4.68;;
13795;SDS011;40911;51.552;9.874;2022-07-09T03:27:28;8.77;;;5.10;;
13795;SDS011;40911;51.552;9.874;2022-07-09T03:32:11;11.55;;;5.07;;
13795;SDS011;40911;51.552;9.874;2022-07-09T03:36:55;7.15;;;4.30;;
13795;SDS011;40911;51.552;9.874;2022-07-09T03:39:17;11.95;;;4.60;;
13795;SDS011;40911;51.552;9.874;2022-07-09T03:44:00;6.60;;;3.88;;
13795;SDS011;40911;51.552;9.874;2022-07-09T03:48:44;8.07;;;4.15;;
13795;SDS011;40911;51.552;9.874;2022-07-09T03:51:08;9.27;;;4.32;;
13795;SDS011;40911;51.552;9.874;2022-07-09T03:53:30;9.20;;;4.25;;
13795;SDS011;40911;51.552;9.874;2022-07-09T03:55:51;11.25;;;4.78;;
13795;SDS011;40911;51.552;9.874;2022-07-09T04:00:34;8.15;;;4.20;;
13795;SDS011;40911;51.552;9.874;2022-07-09T04:02:56;8.48;;;4.55;;
13795;SDS011;40911;51.552;9.874;2022-07-09T04:05:18;8.07;;;5.07;;
13795;SDS011;40911;51.552;9.874;2022-07-09T04:07:41;8.60;;;5.00;;
13795;SDS011;40911;51.552;9.874;2022-07-09T04:10:04;9.40;;;5.07;;
13795;SDS011;40911;51.552;9.874;2022-07-09T04:12:26;7.47;;;4.40;;
13795;SDS011;40911;51.552;9.874;2022-07-09T04:17:09;9.30;;;4.80;;
13795;SDS011;40911;51.552;9.874;2022-07-09T04:21:52;9.45;;;4.97;;
13795;SDS011;40911;51.552;9.874;2022-07-09T04:26:36;9.70;;;4.22;;
13795;SDS011;40911;51.552;9.874;2022-07-09T04:31:20;11.60;;;5.20;;
13795;SDS011;40911;51.552;9.874;2022-07-09T04:38:25;10.43;;;5.10;;
13795;SDS011;40911;51.552;9.874;2022-07-09T04:43:10;11.73;;;5.32;;
13795;SDS011;40911;51.552;9.874;2022-07-09T04:45:31;10.48;;;5.38;;
13795;SDS011;40911;51.552;9.874;2022-07-09T04:47:54;12.43;;;5.40;;
13795;SDS011;40911;51.552;9.874;2022-07-09T04:50:17;8.13;;;5.68;;
13795;SDS011;40911;51.552;9.874;2022-07-09T04:55:00;9.55;;;5.90;;
13795;SDS011;40911;51.552;9.874;2022-07-09T04:59:44;9.57;;;5.63;;
13795;SDS011;40911;51.552;9.874;2022-07-09T05:04:27;11.05;;;6.28;;
13795;SDS011;40911;51.552;9.874;2022-07-09T05:06:50;10.20;;;6.78;;
13795;SDS011;40911;51.552;9.874;2022-07-09T05:11:33;14.80;;;7.40;;
13795;SDS011;40911;51.552;9.874;2022-07-09T05:16:17;14.60;;;9.65;;
13795;SDS011;40911;51.552;9.874;2022-07-09T05:21:00;17.90;;;10.15;;
13795;SDS011;40911;51.552;9.874;2022-07-09T05:23:22;15.65;;;9.77;;
13795;SDS011;40911;51.552;9.874;2022-07-09T05:25:44;13.98;;;10.10;;
13795;SDS011;40911;51.552;9.874;2022-07-09T05:30:29;17.00;;;11.32;;
13795;SDS011;40911;51.552;9.874;2022-07-09T05:32:50;15.88;;;11.60;;
13795;SDS011;40911;51.552;9.874;2022-07-09T05:37:33;17.38;;;11.02;;
13795;SDS011;40911;51.552;9.874;2022-07-09T05:40:01;16.40;;;11.73;;
13795;SDS011;40911;51.552;9.874;2022-07-09T05:42:25;16.00;;;12.00;;
13795;SDS011;40911;51.552;9.874;2022-07-09T05:47:10;22.13;;;13.32;;
13795;SDS011;40911;51.552;9.874;2022-07-09T05:49:32;21.60;;;13.15;;
13795;SDS011;40911;51.552;9.874;2022-07-09T05:54:15;21.15;;;13.93;;
13795;SDS011;40911;51.552;9.874;2022-07-09T06:01:20;16.83;;;12.30;;
13795;SDS011;40911;51.552;9.874;2022-07-09T06:06:05;17.95;;;11.88;;
13795;SDS011;40911;51.552;9.874;2022-07-09T06:08:27;19.77;;;11.93;;
13795;SDS011;40911;51.552;9.874;2022-07-09T06:10:48;20.73;;;12.07;;
13795;SDS011;40911;51.552;9.874;2022-07-09T06:15:31;16.48;;;11.32;;
13795;SDS011;40911;51.552;9.874;2022-07-09T06:20:16;15.48;;;10.75;;
13795;SDS011;40911;51.552;9.874;2022-07-09T06:22:37;17.08;;;10.13;;
13795;SDS011;40911;51.552;9.874;2022-07-09T06:24:59;15.07;;;9.80;;
13795;SDS011;40911;51.552;9.874;2022-07-09T06:27:21;12.73;;;9.55;;
13795;SDS011;40911;51.552;9.874;2022-07-09T06:32:05;11.55;;;9.15;;
13795;SDS011;40911;51.552;9.874;2022-07-09T06:34:27;11.73;;;9.55;;
13795;SDS011;40911;51.552;9.874;2022-07-09T06:39:11;12.10;;;8.57;;
13795;SDS011;40911;51.552;9.874;2022-07-09T06:41:51;16.65;;;9.35;;
13795;SDS011;40911;51.552;9.874;2022-07-09T06:46:34;12.70;;;8.18;;
13795;SDS011;40911;51.552;9.874;2022-07-09T06:48:58;11.90;;;8.18;;
13795;SDS011;40911;51.552;9.874;2022-07-09T06:53:42;11.43;;;7.93;;
13795;SDS011;40911;51.552;9.874;2022-07-09T06:56:04;10.85;;;7.90;;
13795;SDS011;40911;51.552;9.874;2022-07-09T06:58:27;9.50;;;7.55;;
13795;SDS011;40911;51.552;9.874;2022-07-09T07:03:17;10.52;;;8.23;;
13795;SDS011;40911;51.552;9.874;2022-07-09T07:05:46;9.23;;;7.47;;
13795;SDS011;40911;51.552;9.874;2022-07-09T07:08:41;12.70;;;7.50;;
13795;SDS011;40911;51.552;9.874;2022-07-09T07:11:32;8.13;;;6.95;;
13795;SDS011;40911;51.552;9.874;2022-07-09T07:20:50;10.13;;;6.75;;
13795;SDS011;40911;51.552;9.874;2022-07-09T07:33:33;7.35;;;5.55;;
13795;SDS011;40911;51.552;9.874;2022-07-09T07:36:03;7.72;;;6.18;;
13795;SDS011;40911;51.552;9.874;2022-07-09T07:38:30;9.60;;;6.32;;
13795;SDS011;40911;51.552;9.874;2022-07-09T07:41:06;8.48;;;6.50;;
13795;SDS011;40911;51.552;9.874;2022-07-09T07:43:47;8.52;;;6.30;;
13795;SDS011;40911;51.552;9.874;2022-07-09T07:46:09;8.20;;;5.63;;
13795;SDS011;40911;51.552;9.874;2022-07-09T07:58:38;7.97;;;5.70;;
13795;SDS011;40911;51.552;9.874;2022-07-09T08:03:52;5.50;;;4.65;;
13795;SDS011;40911;51.552;9.874;2022-07-09T08:06:41;6.97;;;4.60;;
13795;SDS011;40911;51.552;9.874;2022-07-09T08:09:03;7.55;;;4.30;;
13795;SDS011;40911;51.552;9.874;2022-07-09T08:11:25;6.50;;;4.45;;
13795;SDS011;40911;51.552;9.874;2022-07-09T08:13:46;7.32;;;4.18;;
13795;SDS011;40911;51.552;9.874;2022-07-09T08:18:29;6.88;;;3.80;;
13795;SDS011;40911;51.552;9.874;2022-07-09T08:23:14;4.70;;;3.60;;
13795;SDS011;40911;51.552;9.874;2022-07-09T08:25:35;6.43;;;3.08;;
13795;SDS011;40911;51.552;9.874;2022-07-09T08:27:57;4.80;;;3.30;;
13795;SDS011;40911;51.552;9.874;2022-07-09T08:32:40;3.92;;;3.50;;
13795;SDS011;40911;51.552;9.874;2022-07-09T08:37:23;3.97;;;2.95;;
13795;SDS011;40911;51.552;9.874;2022-07-09T08:39:46;2.90;;;2.58;;
13795;SDS011;40911;51.552;9.874;2022-07-09T08:42:08;2.90;;;2.70;;
13795;SDS011;40911;51.552;9.874;2022-07-09T08:44:31;5.80;;;3.35;;
13795;SDS011;40911;51.552;9.874;2022-07-09T08:46:55;6.00;;;3.30;;
13795;SDS011;40911;51.552;9.874;2022-07-09T08:49:18;6.30;;;2.40;;
13795;SDS011;40911;51.552;9.874;2022-07-09T08:51:41;3.88;;;2.70;;
13795;SDS011;40911;51.552;9.874;2022-07-09T08:54:05;4.88;;;2.60;;
13795;SDS011;40911;51.552;9.874;2022-07-09T08:56:29;3.30;;;2.80;;
13795;SDS011;40911;51.552;9.874;2022-07-09T08:58:51;3.30;;;2.50;;
13795;SDS011;40911;51.552;9.874;2022-07-09T09:05:59;4.35;;;2.22;;
13795;SDS011;40911;51.552;9.874;2022-07-09T09:08:23;3.63;;;2.00;;
13795;SDS011;40911;51.552;9.874;2022-07-09T09:13:12;4.25;;;2.10;;
13795;SDS011;40911;51.552;9.874;2022-07-09T09:15:35;4.07;;;2.25;;
13795;SDS011;40911;51.552;9.874;2022-07-09T09:17:57;4.50;;;2.38;;
13795;SDS011;40911;51.552;9.874;2022-07-09T09:22:44;3.08;;;2.28;;
13795;SDS011;40911;51.552;9.874;2022-07-09T09:25:07;3.00;;;2.30;;
13795;SDS011;40911;51.552;9.874;2022-07-09T09:27:35;4.20;;;2.30;;
13795;SDS011;40911;51.552;9.874;2022-07-09T09:29:59;3.70;;;2.10;;
13795;SDS011;40911;51.552;9.874;2022-07-09T09:32:21;4.13;;;2.00;;
13795;SDS011;40911;51.552;9.874;2022-07-09T09:34:48;2.15;;;1.92;;
13795;SDS011;40911;51.552;9.874;2022-07-09T09:37:10;4.95;;;1.90;;
13795;SDS011;40911;51.552;9.874;2022-07-09T09:39:33;3.08;;;1.80;;
13795;SDS011;40911;51.552;9.874;2022-07-09T09:41:56;2.92;;;1.90;;
13795;SDS011;40911;51.552;9.874;2022-07-09T09:44:18;2.53;;;1.77;;
13795;SDS011;40911;51.552;9.874;2022-07-09T09:46:43;2.40;;;1.70;;
13795;SDS011;40911;51.552;9.874;2022-07-09T09:49:06;1.67;;;1.50;;
13795;SDS011;40911;51.552;9.874;2022-07-09T09:51:30;2.05;;;1.55;;
13795;SDS011;40911;51.552;9.874;2022-07-09T09:53:52;2.03;;;1.80;;
13795;SDS011;40911;51.552;9.874;2022-07-09T09:56:15;2.15;;;1.60;;
13795;SDS011;40911;51.552;9.874;2022-07-09T09:58:37;3.40;;;1.80;;
13795;SDS011;40911;51.552;9.874;2022-07-09T10:01:00;2.03;;;1.70;;
13795;SDS011;40911;51.552;9.874;2022-07-09T10:03:23;1.95;;;1.75;;
13795;SDS011;40911;51.552;9.874;2022-07-09T10:05:44;2.65;;;1.80;;
13795;SDS011;40911;51.552;9.874;2022-07-09T10:08:07;4.57;;;2.13;;
13795;SDS011;40911;51.552;9.874;2022-07-09T10:10:30;3.10;;;2.08;;
13795;SDS011;40911;51.552;9.874;2022-07-09T10:15:20;3.33;;;1.65;;
13795;SDS011;40911;51.552;9.874;2022-07-09T10:17:42;2.03;;;1.70;;
13795;SDS011;40911;51.552;9.874;2022-07-09T10:22:34;3.10;;;1.92;;
13795;SDS011;40911;51.552;9.874;2022-07-09T10:24:56;3.10;;;1.90;;
13795;SDS011;40911;51.552;9.874;2022-07-09T10:29:52;1.98;;;1.60;;
13795;SDS011;40911;51.552;9.874;2022-07-09T10:32:20;2.53;;;1.80;;
13795;SDS011;40911;51.552;9.874;2022-07-09T10:34:52;2.65;;;1.77;;
13795;SDS011;40911;51.552;9.874;2022-07-09T10:37:18;4.00;;;1.83;;
13795;SDS011;40911;51.552;9.874;2022-07-09T10:39:52;2.90;;;1.95;;
13795;SDS011;40911;51.552;9.874;2022-07-09T10:42:17;2.42;;;1.60;;
13795;SDS011;40911;51.552;9.874;2022-07-09T10:44:40;2.67;;;1.60;;
13795;SDS011;40911;51.552;9.874;2022-07-09T10:47:02;2.45;;;1.70;;
13795;SDS011;40911;51.552;9.874;2022-07-09T10:49:25;2.50;;;1.48;;
13795;SDS011;40911;51.552;9.874;2022-07-09T10:51:47;2.55;;;1.90;;
13795;SDS011;40911;51.552;9.874;2022-07-09T10:54:15;2.63;;;1.60;;
13795;SDS011;40911;51.552;9.874;2022-07-09T10:56:37;4.05;;;1.67;;
13795;SDS011;40911;51.552;9.874;2022-07-09T10:59:00;3.15;;;1.52;;
13795;SDS011;40911;51.552;9.874;2022-07-09T11:03:46;2.22;;;1.50;;
13795;SDS011;40911;51.552;9.874;2022-07-09T11:06:10;1.92;;;1.45;;
13795;SDS011;40911;51.552;9.874;2022-07-09T11:10:55;1.80;;;1.60;;
13795;SDS011;40911;51.552;9.874;2022-07-09T11:13:17;3.70;;;1.55;;
13795;SDS011;40911;51.552;9.874;2022-07-09T11:18:00;3.05;;;1.55;;
13795;SDS011;40911;51.552;9.874;2022-07-09T11:20:23;2.38;;;1.50;;
13795;SDS011;40911;51.552;9.874;2022-07-09T11:22:46;1.75;;;1.40;;
13795;SDS011;40911;51.552;9.874;2022-07-09T11:25:08;1.48;;;1.38;;
13795;SDS011;40911;51.552;9.874;2022-07-09T11:27:31;2.83;;;1.60;;
13795;SDS011;40911;51.552;9.874;2022-07-09T11:29:53;2.63;;;1.50;;
13795;SDS011;40911;51.552;9.874;2022-07-09T11:32:16;1.42;;;1.33;;
13795;SDS011;40911;51.552;9.874;2022-07-09T11:34:38;1.38;;;1.27;;
13795;SDS011;40911;51.552;9.874;2022-07-09T11:37:10;3.03;;;1.52;;
13795;SDS011;40911;51.552;9.874;2022-07-09T11:41:55;2.90;;;1.50;;
13795;SDS011;40911;51.552;9.874;2022-07-09T11:44:24;1.75;;;1.40;;
13795;SDS011;40911;51.552;9.874;2022-07-09T11:46:46;1.70;;;1.42;;
13795;SDS011;40911;51.552;9.874;2022-07-09T11:49:41;4.85;;;1.48;;
13795;SDS011;40911;51.552;9.874;2022-07-09T11:52:04;3.22;;;1.30;;
13795;SDS011;40911;51.552;9.874;2022-07-09T11:54:26;4.93;;;1.20;;
13795;SDS011;40911;51.552;9.874;2022-07-09T11:56:48;2.33;;;1.58;;
13795;SDS011;40911;51.552;9.874;2022-07-09T12:01:32;2.95;;;1.50;;
13795;SDS011;40911;51.552;9.874;2022-07-09T12:03:54;2.55;;;1.35;;
13795;SDS011;40911;51.552;9.874;2022-07-09T12:06:16;2.33;;;1.30;;
13795;SDS011;40911;51.552;9.874;2022-07-09T12:08:38;4.55;;;1.40;;
13795;SDS011;40911;51.552;9.874;2022-07-09T12:13:21;3.03;;;1.50;;
13795;SDS011;40911;51.552;9.874;2022-07-09T12:15:43;5.07;;;1.40;;
13795;SDS011;40911;51.552;9.874;2022-07-09T12:18:06;1.88;;;1.45;;
13795;SDS011;40911;51.552;9.874;2022-07-09T12:20:29;3.08;;;1.50;;
13795;SDS011;40911;51.552;9.874;2022-07-09T12:22:52;1.33;;;1.20;;
13795;SDS011;40911;51.552;9.874;2022-07-09T12:27:35;2.55;;;1.55;;
13795;SDS011;40911;51.552;9.874;2022-07-09T12:29:56;1.88;;;1.42;;
13795;SDS011;40911;51.552;9.874;2022-07-09T12:34:41;2.15;;;1.63;;
13795;SDS011;40911;51.552;9.874;2022-07-09T12:37:02;2.20;;;1.52;;
13795;SDS011;40911;51.552;9.874;2022-07-09T12:39:24;2.20;;;1.30;;
13795;SDS011;40911;51.552;9.874;2022-07-09T12:41:46;1.45;;;1.30;;
13795;SDS011;40911;51.552;9.874;2022-07-09T12:44:07;2.05;;;1.40;;
13795;SDS011;40911;51.552;9.874;2022-07-09T12:48:50;2.80;;;1.40;;
13795;SDS011;40911;51.552;9.874;2022-07-09T12:51:13;3.72;;;1.23;;
13795;SDS011;40911;51.552;9.874;2022-07-09T12:53:35;3.95;;;1.40;;
13795;SDS011;40911;51.552;9.874;2022-07-09T12:58:18;2.90;;;1.33;;
13795;SDS011;40911;51.552;9.874;2022-07-09T13:00:40;1.35;;;1.00;;
13795;SDS011;40911;51.552;9.874;2022-07-09T13:03:02;1.13;;;1.02;;
13795;SDS011;40911;51.552;9.874;2022-07-09T13:05:23;2.15;;;1.30;;
13795;SDS011;40911;51.552;9.874;2022-07-09T13:07:46;1.10;;;1.00;;
13795;SDS011;40911;51.552;9.874;2022-07-09T13:10:08;2.05;;;1.17;;
13795;SDS011;40911;51.552;9.874;2022-07-09T13:12:29;1.33;;;0.95;;
13795;SDS011;40911;51.552;9.874;2022-07-09T13:14:52;3.03;;;1.33;;
13795;SDS011;40911;51.552;9.874;2022-07-09T13:17:14;1.80;;;0.98;;
13795;SDS011;40911;51.552;9.874;2022-07-09T13:19:36;1.00;;;0.90;;
13795;SDS011;40911;51.552;9.874;2022-07-09T13:21:57;1.67;;;1.00;;
13795;SDS011;40911;51.552;9.874;2022-07-09T13:24:21;3.13;;;1.00;;
13795;SDS011;40911;51.552;9.874;2022-07-09T13:26:42;0.85;;;0.85;;
13795;SDS011;40911;51.552;9.874;2022-07-09T13:29:04;1.67;;;1.17;;
13795;SDS011;40911;51.552;9.874;2022-07-09T13:31:26;1.20;;;0.95;;
13795;SDS011;40911;51.552;9.874;2022-07-09T13:33:47;1.10;;;1.00;;
13795;SDS011;40911;51.552;9.874;2022-07-09T13:36:09;1.05;;;0.90;;
13795;SDS011;40911;51.552;9.874;2022-07-09T13:38:31;2.00;;;0.98;;
13795;SDS011;40911;51.552;9.874;2022-07-09T13:40:54;2.50;;;1.00;;
13795;SDS011;40911;51.552;9.874;2022-07-09T13:43:16;3.85;;;1.10;;
13795;SDS011;40911;51.552;9.874;2022-07-09T13:45:38;1.30;;;0.90;;
13795;SDS011;40911;51.552;9.874;2022-07-09T13:48:00;2.50;;;1.35;;
13795;SDS011;40911;51.552;9.874;2022-07-09T13:50:22;2.55;;;1.23;;
13795;SDS011;40911;51.552;9.874;2022-07-09T13:52:44;2.30;;;1.10;;
13795;SDS011;40911;51.552;9.874;2022-07-09T13:55:05;2.25;;;1.20;;
13795;SDS011;40911;51.552;9.874;2022-07-09T13:57:29;1.45;;;1.05;;
13795;SDS011;40911;51.552;9.874;2022-07-09T13:59:50;2.08;;;1.33;;
13795;SDS011;40911;51.552;9.874;2022-07-09T14:02:12;1.50;;;1.17;;
13795;SDS011;40911;51.552;9.874;2022-07-09T14:04:33;2.83;;;1.30;;
13795;SDS011;40911;51.552;9.874;2022-07-09T14:06:55;2.35;;;1.30;;
13795;SDS011;40911;51.552;9.874;2022-07-09T14:09:17;2.70;;;1.10;;
13795;SDS011;40911;51.552;9.874;2022-07-09T14:11:40;2.20;;;1.20;;
13795;SDS011;40911;51.552;9.874;2022-07-09T14:14:03;1.88;;;1.10;;
13795;SDS011;40911;51.552;9.874;2022-07-09T14:16:25;2.17;;;1.25;;
13795;SDS011;40911;51.552;9.874;2022-07-09T14:18:46;2.08;;;1.15;;
13795;SDS011;40911;51.552;9.874;2022-07-09T14:21:08;2.72;;;1.42;;
13795;SDS011;40911;51.552;9.874;2022-07-09T14:23:29;2.50;;;1.58;;
13795;SDS011;40911;51.552;9.874;2022-07-09T14:28:12;2.22;;;1.42;;
13795;SDS011;40911;51.552;9.874;2022-07-09T14:30:36;2.67;;;1.50;;
13795;SDS011;40911;51.552;9.874;2022-07-09T14:32:57;2.20;;;1.65;;
13795;SDS011;40911;51.552;9.874;2022-07-09T14:35:19;2.17;;;1.63;;
13795;SDS011;40911;51.552;9.874;2022-07-09T14:40:02;1.77;;;1.67;;
13795;SDS011;40911;51.552;9.874;2022-07-09T14:42:24;2.38;;;1.60;;
13795;SDS011;40911;51.552;9.874;2022-07-09T14:44:46;1.60;;;1.40;;
13795;SDS011;40911;51.552;9.874;2022-07-09T14:49:30;5.20;;;1.80;;
13795;SDS011;40911;51.552;9.874;2022-07-09T14:54:13;2.25;;;1.50;;
13795;SDS011;40911;51.552;9.874;2022-07-09T14:56:35;2.13;;;1.70;;
13795;SDS011;40911;51.552;9.874;2022-07-09T15:01:18;1.60;;;1.40;;
13795;SDS011;40911;51.552;9.874;2022-07-09T15:03:41;4.20;;;1.40;;
13795;SDS011;40911;51.552;9.874;2022-07-09T15:06:03;2.67;;;1.60;;
13795;SDS011;40911;51.552;9.874;2022-07-09T15:08:25;2.65;;;1.48;;
13795;SDS011;40911;51.552;9.874;2022-07-09T15:10:46;1.95;;;1.48;;
13795;SDS011;40911;51.552;9.874;2022-07-09T15:13:08;2.05;;;1.30;;
13795;SDS011;40911;51.552;9.874;2022-07-09T15:15:30;1.83;;;1.20;;
13795;SDS011;40911;51.552;9.874;2022-07-09T15:20:14;2.08;;;1.42;;
13795;SDS011;40911;51.552;9.874;2022-07-09T15:22:35;1.45;;;1.20;;
13795;SDS011;40911;51.552;9.874;2022-07-09T15:24:57;3.55;;;1.50;;
13795;SDS011;40911;51.552;9.874;2022-07-09T15:27:24;1.75;;;1.08;;
13795;SDS011;40911;51.552;9.874;2022-07-09T15:29:46;1.17;;;0.90;;
13795;SDS011;40911;51.552;9.874;2022-07-09T15:32:07;4.38;;;1.30;;
13795;SDS011;40911;51.552;9.874;2022-07-09T15:34:29;1.25;;;1.15;;
13795;SDS011;40911;51.552;9.874;2022-07-09T15:36:52;1.90;;;1.20;;
13795;SDS011;40911;51.552;9.874;2022-07-09T15:39:13;3.30;;;1.05;;
13795;SDS011;40911;51.552;9.874;2022-07-09T15:41:35;1.02;;;1.00;;
13795;SDS011;40911;51.552;9.874;2022-07-09T15:43:57;1.77;;;1.23;;
13795;SDS011;40911;51.552;9.874;2022-07-09T15:46:21;1.38;;;1.17;;
13795;SDS011;40911;51.552;9.874;2022-07-09T15:48:42;1.98;;;1.00;;
13795;SDS011;40911;51.552;9.874;2022-07-09T15:51:04;2.45;;;1.10;;
13795;SDS011;40911;51.552;9.874;2022-07-09T15:53:28;2.00;;;0.95;;
13795;SDS011;40911;51.552;9.874;2022-07-09T15:55:50;1.48;;;1.00;;
13795;SDS011;40911;51.552;9.874;2022-07-09T15:58:12;1.13;;;1.02;;
13795;SDS011;40911;51.552;9.874;2022-07-09T16:00:33;1.45;;;1.30;;
13795;SDS011;40911;51.552;9.874;2022-07-09T16:02:55;1.95;;;1.20;;
13795;SDS011;40911;51.552;9.874;2022-07-09T16:05:18;2.50;;;1.13;;
13795;SDS011;40911;51.552;9.874;2022-07-09T16:07:40;3.83;;;0.95;;
13795;SDS011;40911;51.552;9.874;2022-07-09T16:10:03;0.82;;;0.80;;
13795;SDS011;40911;51.552;9.874;2022-07-09T16:12:25;1.20;;;0.90;;
13795;SDS011;40911;51.552;9.874;2022-07-09T16:15:05;1.15;;;0.88;;
13795;SDS011;40911;51.552;9.874;2022-07-09T16:17:27;1.58;;;0.82;;
13795;SDS011;40911;51.552;9.874;2022-07-09T16:19:49;2.47;;;0.80;;
13795;SDS011;40911;51.552;9.874;2022-07-09T16:22:10;1.08;;;0.80;;
13795;SDS011;40911;51.552;9.874;2022-07-09T16:24:34;1.23;;;0.77;;
13795;SDS011;40911;51.552;9.874;2022-07-09T16:26:57;1.40;;;0.75;;
13795;SDS011;40911;51.552;9.874;2022-07-09T16:29:19;1.55;;;0.80;;
13795;SDS011;40911;51.552;9.874;2022-07-09T16:31:40;1.23;;;0.75;;
13795;SDS011;40911;51.552;9.874;2022-07-09T16:34:02;0.88;;;0.68;;
13795;SDS011;40911;51.552;9.874;2022-07-09T16:36:24;1.63;;;0.70;;
13795;SDS011;40911;51.552;9.874;2022-07-09T16:38:45;1.27;;;0.90;;
13795;SDS011;40911;51.552;9.874;2022-07-09T16:41:07;1.42;;;0.80;;
13795;SDS011;40911;51.552;9.874;2022-07-09T16:43:30;1.88;;;0.90;;
13795;SDS011;40911;51.552;9.874;2022-07-09T16:45:51;1.67;;;0.80;;
13795;SDS011;40911;51.552;9.874;2022-07-09T16:48:27;3.28;;;0.98;;
13795;SDS011;40911;51.552;9.874;2022-07-09T16:50:48;2.17;;;0.90;;
13795;SDS011;40911;51.552;9.874;2022-07-09T16:53:10;3.03;;;0.85;;
13795;SDS011;40911;51.552;9.874;2022-07-09T16:55:31;1.60;;;0.80;;
13795;SDS011;40911;51.552;9.874;2022-07-09T16:57:53;1.98;;;0.90;;
13795;SDS011;40911;51.552;9.874;2022-07-09T17:00:16;1.45;;;0.95;;
13795;SDS011;40911;51.552;9.874;2022-07-09T17:02:38;0.80;;;0.80;;
13795;SDS011;40911;51.552;9.874;2022-07-09T17:04:59;1.67;;;1.00;;
13795;SDS011;40911;51.552;9.874;2022-07-09T17:07:21;1.40;;;1.10;;
13795;SDS011;40911;51.552;9.874;2022-07-09T17:09:43;1.50;;;0.90;;
13795;SDS011;40911;51.552;9.874;2022-07-09T17:12:04;2.17;;;1.00;;
13795;SDS011;40911;51.552;9.874;2022-07-09T17:14:26;2.42;;;0.90;;
13795;SDS011;40911;51.552;9.874;2022-07-09T17:16:49;4.47;;;1.10;;
13795;SDS011;40911;51.552;9.874;2022-07-09T17:19:11;3.85;;;1.10;;
13795;SDS011;40911;51.552;9.874;2022-07-09T17:21:32;1.35;;;1.00;;
13795;SDS011;40911;51.552;9.874;2022-07-09T17:23:54;3.65;;;1.10;;
13795;SDS011;40911;51.552;9.874;2022-07-09T17:26:16;2.53;;;1.40;;
13795;SDS011;40911;51.552;9.874;2022-07-09T17:28:37;2.28;;;1.13;;
13795;SDS011;40911;51.552;9.874;2022-07-09T17:30:59;2.97;;;1.00;;
13795;SDS011;40911;51.552;9.874;2022-07-09T17:33:22;3.13;;;1.10;;
13795;SDS011;40911;51.552;9.874;2022-07-09T17:35:43;2.70;;;1.15;;
13795;SDS011;40911;51.552;9.874;2022-07-09T17:38:06;2.05;;;0.95;;
13795;SDS011;40911;51.552;9.874;2022-07-09T17:40:29;2.58;;;1.10;;
13795;SDS011;40911;51.552;9.874;2022-07-09T17:42:50;2.47;;;1.20;;
13795;SDS011;40911;51.552;9.874;2022-07-09T17:45:12;2.25;;;1.08;;
13795;SDS011;40911;51.552;9.874;2022-07-09T17:47:34;2.13;;;1.20;;
13795;SDS011;40911;51.552;9.874;2022-07-09T17:49:57;3.40;;;1.20;;
13795;SDS011;40911;51.552;9.874;2022-07-09T17:52:20;12.77;;;1.63;;
13795;SDS011;40911;51.552;9.874;2022-07-09T17:54:41;4.95;;;1.42;;
13795;SDS011;40911;51.552;9.874;2022-07-09T17:57:06;3.85;;;1.30;;